South Timbalier Oil Rig, Louisiana
Current Conditions -  °F | °C
As of 10:55 AM on Thursday 30 Oct 2014 (Local Time) from KSQE Reporting Station
Overcast Overcast  
Wind Chill: 75°   Ceiling: 2800
Heat Index: 75°   Visibility: 9mi
Dew Point: 66°   Wind: 18mph
Humidity: 73%   Direction: 60°ENE
Pressure: 30.07"   Gusts: NA
Location:  28.15°N, 90.72°W
Report Text: KSQE 301555Z AUTO 06016KT 9SM SCT021 BKN028 OVC033 24/19 A3007 RMK A01
Loading
Personal Weather Stations






























Interactive Weather Map
Tropical Storm Tracking
New forecast layout! Learn more

10-Day Weather Forecast

Advertisements
Track Severe Weather on mobile